Time;durP1;ratioP1;P1;durP2;ratioP2;P2;SDS_P1;SDS_P2;PMS_P1;PMS_P2;Temp;Humidity;BMP_temperature;BMP_pressure;BME280_temperature;BME280_humidity;BME280_pressure;Samples;Min_cycle;Max_cycle;Signal;HPM_P1;HPM_P2
2023/10/12 00:01:58;;;;;;;19.48;8.98;;;;;;;17.86;100.00;101064.97;5092337;28;20048;-60
2023/10/12 00:04:59;;;;;;;19.38;9.10;;;;;;;17.86;100.00;101058.66;5084693;28;20086;-64
2023/10/12 00:07:49;;;;;;;19.33;8.43;;;;;;;17.84;100.00;101061.69;5076306;28;20078;-64
2023/10/12 00:10:42;;;;;;;16.05;9.18;;;;;;;17.83;100.00;101067.53;5074784;28;20044;-66
2023/10/12 00:13:30;;;;;;;17.17;9.65;;;;;;;17.81;100.00;101065.09;5060954;28;20131;-65
2023/10/12 00:16:19;;;;;;;23.05;10.23;;;;;;;17.81;100.00;101078.88;5073272;28;20572;-64
2023/10/12 00:19:11;;;;;;;18.35;10.00;;;;;;;17.79;100.00;101074.75;5073900;28;20048;-63
2023/10/12 00:22:00;;;;;;;21.23;11.27;;;;;;;17.76;100.00;101081.72;5072097;28;20496;-64
2023/10/12 00:24:49;;;;;;;21.90;9.80;;;;;;;17.74;100.00;101075.69;5074822;28;20420;-65
2023/10/12 00:27:41;;;;;;;21.13;10.65;;;;;;;17.72;100.00;101077.13;5073291;28;20045;-65
2023/10/12 00:30:31;;;;;;;23.60;10.13;;;;;;;17.72;100.00;101082.63;5061500;28;20052;-65
2023/10/12 00:33:19;;;;;;;20.10;10.25;;;;;;;17.71;100.00;101081.84;5068408;28;20053;-65
2023/10/12 00:36:19;;;;;;;21.48;11.27;;;;;;;17.69;100.00;101078.56;5060824;28;20045;-65
2023/10/12 00:39:12;;;;;;;26.08;11.55;;;;;;;17.67;100.00;101086.31;5048336;28;20059;-66
2023/10/12 00:42:00;;;;;;;23.52;11.23;;;;;;;17.63;100.00;101090.81;5059026;28;20045;-65
2023/10/12 00:44:55;;;;;;;20.67;11.50;;;;;;;17.62;100.00;101091.94;5073728;28;20044;-65
2023/10/12 00:47:43;;;;;;;26.88;12.38;;;;;;;17.64;100.00;101095.22;5072553;28;20072;-65
2023/10/12 00:50:32;;;;;;;21.08;12.13;;;;;;;17.60;100.00;101102.47;5057553;28;20048;-65
2023/10/12 00:56:11;;;;;;;26.38;12.35;;;;;;;17.59;100.00;101112.69;5057860;28;20055;-66
2023/10/12 00:59:00;;;;;;;25.77;12.65;;;;;;;17.57;100.00;101119.63;5028485;28;20052;-65
2023/10/12 01:01:53;;;;;;;20.35;11.88;;;;;;;17.57;100.00;101116.88;5045564;28;20119;-65
2023/10/12 01:04:42;;;;;;;20.98;11.77;;;;;;;17.56;100.00;101106.97;5059030;28;20056;-65
2023/10/12 01:07:36;;;;;;;21.67;12.18;;;;;;;17.57;100.00;101119.63;5045573;28;20045;-66
2023/10/12 01:10:30;;;;;;;27.27;13.48;;;;;;;17.58;100.00;101118.47;5019988;28;20721;-65
2023/10/12 01:13:18;;;;;;;20.17;11.50;;;;;;;17.56;100.00;101118.00;5039144;28;20056;-62
2023/10/12 01:16:16;;;;;;;24.30;11.93;;;;;;;17.55;100.00;101119.09;5038986;28;20049;-64
2023/10/12 01:19:07;;;;;;;27.52;11.50;;;;;;;17.53;100.00;101118.59;5058224;28;20553;-64
2023/10/12 01:21:57;;;;;;;20.77;11.82;;;;;;;17.52;100.00;101112.28;5044189;28;20045;-64
2023/10/12 01:24:58;;;;;;;21.38;12.45;;;;;;;17.48;100.00;101105.75;5051815;28;20049;-64
2023/10/12 01:27:47;;;;;;;21.67;11.35;;;;;;;17.47;100.00;101109.63;5038169;28;20053;-64
2023/10/12 01:30:36;;;;;;;25.10;12.32;;;;;;;17.45;100.00;101129.22;5056574;28;20064;-64
2023/10/12 01:33:24;;;;;;;22.63;12.13;;;;;;;17.42;100.00;101132.59;5071820;28;20052;-65
2023/10/12 01:36:12;;;;;;;23.73;12.23;;;;;;;17.42;100.00;101129.84;5065982;28;20049;-64
2023/10/12 01:39:14;;;;;;;25.00;13.77;;;;;;;17.42;100.00;101127.06;5071645;28;20478;-65
2023/10/12 01:42:03;;;;;;;26.90;13.38;;;;;;;17.41;100.00;101117.19;5056626;28;20037;-65
2023/10/12 01:44:52;;;;;;;21.08;11.48;;;;;;;17.38;100.00;101105.97;5057906;28;20578;-64
2023/10/12 01:47:40;;;;;;;17.50;11.43;;;;;;;17.37;100.00;101088.63;5071415;28;20051;-65
2023/10/12 01:50:28;;;;;;;19.65;11.80;;;;;;;17.37;100.00;101061.06;5024636;28;20673;-64
2023/10/12 01:56:10;;;;;;;18.90;10.98;;;;;;;17.39;100.00;101075.38;5054928;28;20397;-64
2023/10/12 01:58:58;;;;;;;21.13;11.82;;;;;;;17.41;100.00;101066.78;5057063;28;20041;-64
2023/10/12 02:02:05;;;;;;;19.98;11.25;;;;;;;17.39;100.00;101080.88;5072546;28;20044;-64
2023/10/12 02:04:54;;;;;;;19.25;12.57;;;;;;;17.41;100.00;101077.78;5071580;28;20420;-65
2023/10/12 02:07:43;;;;;;;20.67;11.80;;;;;;;17.40;100.00;101070.66;5056768;28;20748;-64
2023/10/12 02:10:41;;;;;;;21.38;12.05;;;;;;;17.39;100.00;101080.03;5061569;28;20040;-66
2023/10/12 02:13:33;;;;;;;23.50;11.57;;;;;;;17.36;100.00;101081.47;5053437;28;20110;-64
2023/10/12 02:16:52;;;;;;;21.08;11.13;;;;;;;17.36;100.00;101086.97;5071489;28;20036;-64
2023/10/12 02:19:42;;;;;;;18.50;9.95;;;;;;;17.37;100.00;101090.56;5052756;28;20040;-64
2023/10/12 02:22:32;;;;;;;21.02;11.52;;;;;;;17.36;100.00;101078.72;5071231;28;20037;-64
2023/10/12 02:25:26;;;;;;;24.17;11.55;;;;;;;17.34;100.00;101083.75;5071134;28;20495;-65
2023/10/12 02:28:14;;;;;;;22.50;12.25;;;;;;;17.34;100.00;101088.41;5072596;28;20133;-64
2023/10/12 02:31:03;;;;;;;22.70;12.55;;;;;;;17.32;100.00;101097.00;5052228;28;20080;-65
2023/10/12 02:33:52;;;;;;;21.00;11.65;;;;;;;17.29;100.00;101107.78;5052074;28;20064;-64
2023/10/12 02:36:40;;;;;;;24.13;12.55;;;;;;;17.27;100.00;101105.38;5053613;28;20052;-64
2023/10/12 02:39:42;;;;;;;22.92;11.02;;;;;;;17.28;100.00;101095.16;5046180;28;20052;-64
2023/10/12 02:42:45;;;;;;;19.75;12.43;;;;;;;17.30;100.00;101087.41;5048657;28;20044;-64
2023/10/12 02:45:34;;;;;;;25.33;13.48;;;;;;;17.29;100.00;101080.25;5062031;28;20040;-64
2023/10/12 02:48:25;;;;;;;23.13;12.77;;;;;;;17.28;100.00;101056.59;5074897;28;20564;-64
2023/10/12 02:51:15;;;;;;;23.70;13.13;;;;;;;17.26;100.00;101040.38;5068101;28;20047;-65
2023/10/12 02:54:04;;;;;;;26.05;14.45;;;;;;;17.26;100.00;101070.66;5074679;28;20044;-64
2023/10/12 02:56:56;;;;;;;21.20;12.45;;;;;;;17.25;100.00;101075.38;5060621;28;20045;-65
2023/10/12 02:59:49;;;;;;;23.60;14.23;;;;;;;17.25;100.00;101069.06;5074108;28;20052;-64
2023/10/12 03:02:40;;;;;;;23.30;13.15;;;;;;;17.24;100.00;101061.91;5059760;28;20040;-65
2023/10/12 03:05:34;;;;;;;20.70;12.93;;;;;;;17.23;100.00;101054.75;5047705;28;20067;-64
2023/10/12 03:08:23;;;;;;;23.52;13.20;;;;;;;17.21;100.00;101062.50;5074223;28;20044;-64
2023/10/12 03:11:12;;;;;;;24.38;13.52;;;;;;;17.22;100.00;101061.38;5074753;28;20575;-64
2023/10/12 03:14:13;;;;;;;21.63;12.85;;;;;;;17.22;100.00;101056.72;5061971;28;20121;-64
2023/10/12 03:17:05;;;;;;;22.48;13.80;;;;;;;17.22;100.00;101031.94;5049158;28;20048;-65
2023/10/12 03:20:05;;;;;;;20.92;13.85;;;;;;;17.22;100.00;101025.59;5075071;28;20394;-64
2023/10/12 03:22:59;;;;;;;22.02;13.75;;;;;;;17.20;100.00;101022.34;5060037;28;20059;-64
2023/10/12 03:25:51;;;;;;;21.45;12.65;;;;;;;17.19;100.00;101034.47;5075052;28;20590;-64
2023/10/12 03:28:45;;;;;;;22.05;12.95;;;;;;;17.19;100.00;101056.50;5042879;28;20052;-64
2023/10/12 03:34:38;;;;;;;21.98;14.32;;;;;;;17.12;100.00;101054.16;5075420;28;20064;-64
2023/10/12 03:44:05;;;;;;;21.83;13.82;;;;;;;17.04;100.00;101074.94;5043588;28;20056;-64
2023/10/12 03:46:57;;;;;;;20.05;13.90;;;;;;;17.03;100.00;101067.81;5064945;28;20052;-64
2023/10/12 03:52:52;;;;;;;21.65;13.52;;;;;;;17.01;100.00;101064.56;5075109;28;20037;-64
2023/10/12 03:55:48;;;;;;;22.38;13.07;;;;;;;17.00;100.00;101075.88;5074069;28;20549;-63
2023/10/12 03:58:40;;;;;;;22.10;13.05;;;;;;;17.00;100.00;101076.72;5073313;28;20098;-65
2023/10/12 04:01:30;;;;;;;20.10;12.70;;;;;;;17.00;100.00;101079.47;5067967;28;20171;-63
2023/10/12 04:04:34;;;;;;;17.80;11.95;;;;;;;17.00;100.00;101076.72;5057981;28;20412;-65
2023/10/12 04:07:37;;;;;;;20.15;12.43;;;;;;;16.99;100.00;101077.81;5072251;28;20044;-65
2023/10/12 04:16:40;;;;;;;20.35;13.13;;;;;;;16.93;100.00;101090.06;5046149;28;20091;-65
2023/10/12 04:19:32;;;;;;;18.83;11.63;;;;;;;16.94;100.00;101102.69;5073772;28;20052;-64
2023/10/12 04:22:26;;;;;;;16.63;11.60;;;;;;;16.91;100.00;101106.06;5071950;28;20063;-65
2023/10/12 04:25:46;;;;;;;20.85;11.75;;;;;;;16.91;100.00;101094.19;5074491;28;20107;-65
2023/10/12 04:28:23;;;;;;;18.27;10.98;;;;;;;16.91;100.00;101091.44;5075593;28;20053;-64
2023/10/12 04:31:21;;;;;;;20.02;11.23;;;;;;;16.89;100.00;101094.53;5074713;28;20133;-65
2023/10/12 04:34:10;;;;;;;18.25;11.13;;;;;;;16.88;100.00;101092.88;5073417;28;20135;-65
2023/10/12 04:37:11;;;;;;;19.58;11.25;;;;;;;16.88;100.00;101081.06;5050332;28;20055;-64
2023/10/12 04:40:09;;;;;;;21.73;11.43;;;;;;;16.87;100.00;101077.50;5058375;28;20055;-64
2023/10/12 04:43:05;;;;;;;18.40;10.52;;;;;;;16.87;100.00;101098.72;5071741;28;20060;-65
2023/10/12 04:46:05;;;;;;;17.85;10.48;;;;;;;16.86;100.00;101108.06;5073424;28;20040;-64
2023/10/12 04:58:09;;;;;;;16.80;9.63;;;;;;;16.81;100.00;101103.47;5071209;28;20036;-68
2023/10/12 05:01:17;;;;;;;20.65;11.40;;;;;;;16.81;100.00;101109.81;5071371;28;20432;-66
2023/10/12 05:04:08;;;;;;;20.92;11.00;;;;;;;16.82;100.00;101116.94;5071842;28;20041;-64
2023/10/12 05:10:14;;;;;;;17.00;11.50;;;;;;;16.78;100.00;101109.56;5062320;28;20507;-64
2023/10/12 05:13:04;;;;;;;13.38;9.00;;;;;;;16.78;100.00;101120.56;5052921;28;20052;-65
2023/10/12 05:15:56;;;;;;;15.45;9.77;;;;;;;16.81;100.00;101125.47;5056406;28;20496;-65
2023/10/12 05:18:47;;;;;;;17.90;10.48;;;;;;;16.79;100.00;101133.25;5059942;28;20052;-65
2023/10/12 05:21:36;;;;;;;19.15;11.75;;;;;;;16.77;100.00;101144.50;5073032;28;20044;-66
2023/10/12 05:24:24;;;;;;;18.17;10.77;;;;;;;16.78;100.00;101142.56;5073348;28;20063;-66
2023/10/12 05:27:26;;;;;;;17.42;11.00;;;;;;;16.78;100.00;101134.31;5053992;28;20040;-65
2023/10/12 05:30:19;;;;;;;18.95;10.55;;;;;;;16.80;100.00;101132.13;5058911;28;20045;-65
2023/10/12 05:33:18;;;;;;;17.65;11.98;;;;;;;16.80;100.00;101134.88;5058848;28;20071;-66
2023/10/12 05:36:13;;;;;;;14.05;9.85;;;;;;;16.78;100.00;101145.31;5046909;28;20068;-66
2023/10/12 05:39:12;;;;;;;16.85;10.38;;;;;;;16.79;100.00;101144.25;4359241;28;10000807;-65
2023/10/12 05:42:05;;;;;;;15.05;9.93;;;;;;;16.81;100.00;101147.50;5047546;28;20049;-65
2023/10/12 05:45:05;;;;;;;16.45;11.05;;;;;;;16.78;100.00;101150.81;5035066;28;20132;-65
2023/10/12 05:47:54;;;;;;;14.40;7.90;;;;;;;16.79;100.00;101147.00;5059159;28;20147;-65
2023/10/12 05:50:49;;;;;;;19.20;10.07;;;;;;;16.79;100.00;101144.25;5066974;28;20566;-65
2023/10/12 05:53:38;;;;;;;25.42;12.02;;;;;;;16.76;100.00;101161.31;5068321;28;20115;-65
2023/10/12 05:56:26;;;;;;;20.35;11.38;;;;;;;16.74;100.00;101160.81;5067664;28;20052;-65
2023/10/12 05:59:15;;;;;;;15.45;10.13;;;;;;;16.74;100.00;101169.06;5054628;28;20044;-66
2023/10/12 06:02:04;;;;;;;18.92;10.65;;;;;;;16.72;100.00;101166.63;5054226;28;20052;-65
2023/10/12 06:04:52;;;;;;;16.00;8.98;;;;;;;16.73;100.00;101173.75;5068423;28;20044;-65
2023/10/12 06:07:41;;;;;;;15.95;9.73;;;;;;;16.73;100.00;101165.50;5067831;28;20068;-66
2023/10/12 06:10:30;;;;;;;19.25;9.90;;;;;;;16.75;100.00;101171.50;5067610;28;20504;-64
2023/10/12 06:13:22;;;;;;;14.57;9.27;;;;;;;16.75;100.00;101178.97;5071202;28;20037;-65
2023/10/12 06:16:17;;;;;;;16.67;9.63;;;;;;;16.72;100.00;101174.88;5071288;28;20056;-66
2023/10/12 06:19:26;;;;;;;17.25;9.13;;;;;;;16.70;100.00;101168.84;5071257;28;20048;-64
2023/10/12 06:22:23;;;;;;;17.80;9.70;;;;;;;16.66;100.00;101173.31;5073216;28;20586;-65
2023/10/12 06:25:17;;;;;;;17.48;9.05;;;;;;;16.63;100.00;101184.94;5057807;28;20071;-66
2023/10/12 06:28:17;;;;;;;19.13;10.15;;;;;;;16.64;100.00;101185.75;5071337;28;20055;-64
2023/10/12 06:31:07;;;;;;;14.05;8.65;;;;;;;16.64;100.00;101196.75;5054652;28;20044;-65
2023/10/12 06:33:57;;;;;;;13.95;7.68;;;;;;;16.64;100.00;101194.00;5072108;28;20562;-65
2023/10/12 06:36:45;;;;;;;15.00;8.32;;;;;;;16.65;100.00;101190.13;5071699;28;20540;-65
2023/10/12 06:40:16;;;;;;;14.60;8.35;;;;;;;16.64;100.00;101186.53;5062775;28;20185;-64
2023/10/12 06:43:57;;;;;;;15.50;8.60;;;;;;;16.66;100.00;101183.50;5060898;28;20044;-63
2023/10/12 06:45:56;;;;;;;17.15;8.75;;;;;;;16.65;100.00;101188.19;5072741;28;20786;-65
2023/10/12 06:48:45;;;;;;;17.70;8.98;;;;;;;16.65;100.00;101187.38;5063748;28;20492;-65
2023/10/12 06:51:33;;;;;;;16.75;9.40;;;;;;;16.65;100.00;101193.69;5071566;28;20078;-65
2023/10/12 07:00:17;;;;;;;14.27;8.02;;;;;;;16.67;100.00;101194.22;5053223;28;20059;-64
2023/10/12 07:03:08;;;;;;;18.00;9.98;;;;;;;16.69;100.00;101210.41;5052283;28;20413;-62
2023/10/12 07:05:57;;;;;;;17.73;8.82;;;;;;;16.69;100.00;101204.91;5051002;28;20118;-63
2023/10/12 07:08:50;;;;;;;16.65;8.52;;;;;;;16.66;100.00;101211.03;5068954;28;20063;-65
2023/10/12 07:11:40;;;;;;;19.70;10.15;;;;;;;16.66;100.00;101220.09;5070064;28;20053;-65
2023/10/12 07:14:37;;;;;;;16.00;8.45;;;;;;;16.63;100.00;101220.69;5071196;28;20178;-65
2023/10/12 07:17:32;;;;;;;18.55;8.70;;;;;;;16.64;100.00;101224.25;5074453;28;20121;-65
2023/10/12 07:23:34;;;;;;;21.63;10.05;;;;;;;16.60;100.00;101235.88;5075768;28;20048;-63
2023/10/12 07:26:23;;;;;;;21.27;8.40;;;;;;;16.62;100.00;101235.56;5074083;28;20032;-63
2023/10/12 07:29:19;;;;;;;20.63;9.35;;;;;;;16.61;100.00;101243.00;5047038;28;20052;-64
2023/10/12 07:35:13;;;;;;;16.60;8.43;;;;;;;16.61;100.00;101239.44;5049630;28;20353;-65
2023/10/12 07:38:13;;;;;;;20.77;10.43;;;;;;;16.60;100.00;101246.06;5063039;28;20044;-64
2023/10/12 07:41:01;;;;;;;;;;;;;;;16.59;100.00;101245.22;5060970;28;20036;-64
2023/10/12 07:43:49;;;;;;;16.67;8.68;;;;;;;16.59;100.00;101249.91;5059441;28;19920;-65
2023/10/12 07:46:37;;;;;;;17.77;9.27;;;;;;;16.60;100.00;101254.31;5060116;28;20039;-65
2023/10/12 07:52:23;;;;;;;19.48;9.10;;;;;;;16.60;100.00;101252.38;5077271;28;20052;-64
2023/10/12 07:55:17;;;;;;;19.88;9.85;;;;;;;16.64;100.00;101258.09;5064563;28;20235;-65
2023/10/12 07:58:12;;;;;;;21.95;10.40;;;;;;;16.69;100.00;101262.69;5028177;28;20041;-65
2023/10/12 08:04:28;;;;;;;17.27;10.18;;;;;;;16.66;100.00;101260.53;5058900;28;20550;-65
2023/10/12 08:07:26;;;;;;;20.20;9.10;;;;;;;16.65;100.00;101264.44;5075977;28;20203;-64
2023/10/12 08:10:15;;;;;;;16.70;8.20;;;;;;;16.65;100.00;101259.75;5075642;28;20041;-64
2023/10/12 08:13:04;;;;;;;20.20;9.85;;;;;;;16.64;100.00;101262.78;5059691;28;20079;-64
2023/10/12 08:21:47;;;;;;;16.23;8.55;;;;;;;16.64;100.00;101265.53;5075000;28;20053;-64
2023/10/12 08:24:36;;;;;;;20.23;8.13;;;;;;;16.64;100.00;101262.78;5072611;28;20049;-65
2023/10/12 08:27:27;;;;;;;17.02;8.80;;;;;;;16.62;100.00;101260.34;5072749;28;20122;-64
2023/10/12 08:30:23;;;;;;;17.77;9.63;;;;;;;16.61;100.00;101262.25;5076837;28;20049;-65
2023/10/12 08:33:15;;;;;;;15.63;9.13;;;;;;;16.61;100.00;101258.69;5075020;28;20182;-65
2023/10/12 08:39:09;;;;;;;17.85;9.43;;;;;;;16.55;100.00;101274.47;5073551;28;20050;-66
2023/10/12 08:42:29;;;;;;;20.38;9.02;;;;;;;16.58;100.00;101273.03;5054077;28;20041;-66
2023/10/12 08:45:15;;;;;;;16.55;8.50;;;;;;;16.52;100.00;101277.78;5050841;28;20055;-66
2023/10/12 08:48:04;;;;;;;13.65;8.25;;;;;;;16.52;100.00;101280.53;5073235;28;20041;-66
2023/10/12 08:50:58;;;;;;;17.77;8.95;;;;;;;16.54;100.00;101283.00;5069917;28;20044;-66
2023/10/12 08:53:48;;;;;;;19.38;10.02;;;;;;;16.51;100.00;101286.34;5058281;28;20050;-65
2023/10/12 08:56:38;;;;;;;18.63;10.57;;;;;;;16.49;100.00;101286.63;5074932;28;20044;-65
2023/10/12 08:59:29;;;;;;;17.00;9.50;;;;;;;16.48;100.00;101287.78;5060102;28;20047;-65
2023/10/12 09:02:26;;;;;;;15.95;8.52;;;;;;;16.49;100.00;101272.88;5060536;28;20053;-66
2023/10/12 09:05:16;;;;;;;15.55;8.93;;;;;;;16.51;100.00;101278.91;5073118;28;20055;-65
2023/10/12 09:11:02;;;;;;;16.98;9.27;;;;;;;16.58;100.00;101271.09;5073272;28;20044;-66
2023/10/12 09:13:51;;;;;;;15.70;8.95;;;;;;;16.61;100.00;101269.69;5048986;28;20052;-66
2023/10/12 09:16:43;;;;;;;19.88;9.93;;;;;;;16.62;100.00;101276.84;5042935;28;20155;-65
2023/10/12 09:19:32;;;;;;;18.13;10.23;;;;;;;16.64;100.00;101271.84;5056847;28;20127;-65
2023/10/12 09:22:27;;;;;;;16.90;8.80;;;;;;;16.67;100.00;101295.19;5048086;28;20044;-65
2023/10/12 09:25:49;;;;;;;17.42;9.15;;;;;;;16.68;100.00;101285.84;5073324;28;20098;-66
2023/10/12 09:28:27;;;;;;;21.77;10.20;;;;;;;16.69;100.00;101284.72;5073720;28;20570;-66
2023/10/12 09:34:42;;;;;;;24.38;11.35;;;;;;;16.69;100.00;101284.72;5072198;28;20051;-65
2023/10/12 09:37:43;;;;;;;20.15;11.55;;;;;;;16.66;100.00;101288.06;5072474;28;20534;-64
2023/10/12 09:40:42;;;;;;;20.20;12.13;;;;;;;16.66;100.00;101277.06;5059173;28;20048;-64
2023/10/12 09:43:32;;;;;;;23.10;12.13;;;;;;;16.65;100.00;101270.75;5071037;28;20496;-64
2023/10/12 09:46:26;;;;;;;21.48;13.63;;;;;;;16.67;100.00;101262.16;5045808;28;20559;-65
2023/10/12 09:49:24;;;;;;;21.45;13.02;;;;;;;16.68;100.00;101258.31;5072150;28;20067;-65
2023/10/12 09:52:13;;;;;;;21.85;12.27;;;;;;;16.68;100.00;101261.88;5072254;28;20055;-65
2023/10/12 09:55:07;;;;;;;23.52;12.88;;;;;;;16.69;100.00;101266.28;5031266;28;20056;-66
2023/10/12 09:57:56;;;;;;;25.60;13.45;;;;;;;16.69;100.00;101260.78;5065400;28;20135;-66
2023/10/12 10:00:58;;;;;;;25.15;13.52;;;;;;;16.71;100.00;101263.22;5070823;28;20051;-66
2023/10/12 10:03:49;;;;;;;17.95;12.00;;;;;;;16.72;100.00;101260.19;5053774;28;20210;-66
2023/10/12 10:06:38;;;;;;;27.13;13.85;;;;;;;16.73;100.00;101244.47;5066272;28;20132;-66
2023/10/12 10:12:20;;;;;;;17.58;10.80;;;;;;;16.77;100.00;101243.59;5045902;28;20040;-67
2023/10/12 10:15:20;;;;;;;22.42;11.85;;;;;;;16.80;100.00;101244.94;5057431;28;20037;-65
2023/10/12 10:18:15;;;;;;;23.50;14.50;;;;;;;16.82;100.00;101259.22;5071309;28;20048;-64
2023/10/12 10:21:06;;;;;;;21.15;12.25;;;;;;;16.82;100.00;101273.00;5059991;28;20059;-66
2023/10/12 10:23:57;;;;;;;21.02;12.02;;;;;;;16.81;100.00;101258.41;5072440;28;20131;-66
2023/10/12 10:26:49;;;;;;;23.20;12.55;;;;;;;16.81;100.00;101249.31;5074052;28;20055;-65
2023/10/12 10:29:56;;;;;;;20.77;11.60;;;;;;;16.81;100.00;101252.06;5056784;28;20098;-65
2023/10/12 10:32:45;;;;;;;18.98;10.57;;;;;;;16.82;100.00;101248.22;5030729;28;20048;-66
2023/10/12 10:35:56;;;;;;;19.15;10.38;;;;;;;16.82;100.00;101237.22;5041111;28;20098;-66
2023/10/12 10:42:07;;;;;;;17.80;11.38;;;;;;;16.86;100.00;101219.00;5068562;28;20125;-66
2023/10/12 10:44:52;;;;;;;21.35;11.32;;;;;;;16.87;100.00;101217.06;5070280;28;20118;-65
2023/10/12 10:47:49;;;;;;;23.92;12.05;;;;;;;16.87;100.00;101223.38;5071916;28;20059;-65
2023/10/12 10:50:59;;;;;;;23.30;12.23;;;;;;;16.87;100.00;101226.13;5071416;28;20043;-67
2023/10/12 10:53:56;;;;;;;21.52;11.35;;;;;;;16.89;100.00;101228.59;5060049;28;20127;-65
2023/10/12 10:56:48;;;;;;;19.58;11.05;;;;;;;16.91;100.00;101221.66;5062798;28;20048;-65
2023/10/12 10:59:37;;;;;;;17.52;10.50;;;;;;;16.92;100.00;101226.03;5075527;28;20497;-65
2023/10/12 11:02:26;;;;;;;16.88;10.95;;;;;;;16.93;100.00;101221.34;5064813;28;20040;-66
2023/10/12 11:05:19;;;;;;;20.50;11.43;;;;;;;16.94;100.00;101223.81;5072794;28;20477;-66
2023/10/12 11:08:19;;;;;;;15.45;10.23;;;;;;;16.96;100.00;101224.31;5066074;28;20051;-66
2023/10/12 11:13:59;;;;;;;21.20;10.85;;;;;;;16.97;100.00;101212.19;5074639;28;20400;-65
2023/10/12 11:16:47;;;;;;;17.90;10.70;;;;;;;16.95;100.00;101217.16;5075441;28;20051;-65
2023/10/12 11:19:37;;;;;;;15.68;9.98;;;;;;;16.94;100.00;101212.78;5059868;28;20137;-65
2023/10/12 11:22:25;;;;;;;23.20;10.63;;;;;;;16.96;100.00;101218.00;5074706;28;20079;-65
2023/10/12 11:25:15;;;;;;;21.10;10.30;;;;;;;16.95;100.00;101208.09;5078782;28;20052;-66
2023/10/12 11:28:19;;;;;;;20.08;10.15;;;;;;;16.96;100.00;101207.81;5075791;28;20048;-65
2023/10/12 11:31:20;;;;;;;19.83;10.30;;;;;;;16.99;100.00;101206.38;5066086;28;20045;-65
2023/10/12 11:34:21;;;;;;;19.83;11.60;;;;;;;17.00;100.00;101206.09;5060876;28;20416;-65
2023/10/12 11:37:12;;;;;;;19.17;12.05;;;;;;;17.01;100.00;101204.16;5061432;28;20090;-66
2023/10/12 11:40:06;;;;;;;28.98;16.77;;;;;;;17.02;100.00;101203.81;5074911;28;20492;-65
2023/10/12 11:42:56;;;;;;;19.35;11.52;;;;;;;17.03;100.00;101202.72;5040977;28;20044;-66
2023/10/12 11:46:01;;;;;;;21.25;12.43;;;;;;;17.04;100.00;101184.25;5031438;28;20044;-65
2023/10/12 11:49:04;;;;;;;20.30;11.45;;;;;;;17.05;100.00;101185.88;5074823;28;20043;-65
2023/10/12 11:51:53;;;;;;;24.13;11.77;;;;;;;17.07;100.00;101188.34;5066476;28;20056;-65
2023/10/12 11:54:41;;;;;;;23.08;13.20;;;;;;;17.08;100.00;101190.81;5073811;28;20432;-65
2023/10/12 11:57:32;;;;;;;22.65;12.13;;;;;;;17.09;100.00;101197.13;5042347;28;20122;-65
2023/10/12 12:00:21;;;;;;;18.63;10.68;;;;;;;17.09;100.00;101191.63;5073680;28;20084;-65
2023/10/12 12:03:10;;;;;;;24.83;14.48;;;;;;;17.10;100.00;101182.22;5060963;28;20051;-66
2023/10/12 12:06:02;;;;;;;22.75;11.50;;;;;;;17.08;100.00;101187.22;5060958;28;20070;-66
2023/10/12 12:08:51;;;;;;;22.25;11.50;;;;;;;17.07;100.00;101186.41;5072965;28;20041;-65
2023/10/12 12:11:40;;;;;;;20.80;10.82;;;;;;;17.07;100.00;101182.84;5059375;28;20135;-66
2023/10/12 12:14:28;;;;;;;22.17;10.73;;;;;;;17.07;100.00;101178.16;5061218;28;20040;-66
2023/10/12 12:17:16;;;;;;;21.58;10.23;;;;;;;17.08;100.00;101196.31;5059366;28;20131;-66
2023/10/12 12:20:07;;;;;;;13.77;8.68;;;;;;;17.11;100.00;101192.13;5073297;28;20524;-66
2023/10/12 12:23:03;;;;;;;22.85;12.00;;;;;;;17.13;100.00;101181.63;5045099;28;20056;-65
2023/10/12 12:25:59;;;;;;;20.63;10.52;;;;;;;17.13;100.00;101178.88;5061670;28;20046;-64
2023/10/12 12:28:50;;;;;;;20.38;10.48;;;;;;;17.12;100.00;101180.00;5071815;28;20495;-66
2023/10/12 12:31:40;;;;;;;15.88;9.35;;;;;;;17.10;100.00;101166.53;5073447;28;20615;-66
2023/10/12 12:34:38;;;;;;;22.13;10.88;;;;;;;17.10;100.00;101150.03;5072804;28;20045;-64
2023/10/12 12:37:26;;;;;;;21.02;11.77;;;;;;;17.14;100.00;101147.47;5074519;28;20056;-64
2023/10/12 12:40:29;;;;;;;19.77;10.25;;;;;;;17.14;100.00;101141.97;5073734;28;20044;-66
2023/10/12 12:43:17;;;;;;;19.75;9.23;;;;;;;17.13;100.00;101154.09;5059693;28;20185;-66
2023/10/12 12:46:06;;;;;;;15.27;8.20;;;;;;;17.17;100.00;101163.38;5073961;28;20071;-65
2023/10/12 12:48:54;;;;;;;17.25;9.82;;;;;;;17.18;100.00;101168.59;5072730;28;20088;-65
2023/10/12 12:51:43;;;;;;;18.33;10.45;;;;;;;17.19;100.00;101163.88;5073351;28;20045;-65
2023/10/12 12:54:31;;;;;;;22.35;12.07;;;;;;;17.22;100.00;101163.28;5073055;28;20045;-66
2023/10/12 12:57:19;;;;;;;24.13;13.77;;;;;;;17.24;100.00;101148.09;5073871;28;20618;-66
2023/10/12 13:00:08;;;;;;;21.88;11.63;;;;;;;17.24;100.00;101145.34;5060537;28;20083;-66
2023/10/12 13:03:00;;;;;;;28.55;14.25;;;;;;;17.26;100.00;101134.00;5072748;28;20091;-66
2023/10/12 13:05:48;;;;;;;23.55;13.10;;;;;;;17.24;100.00;101131.56;5071025;28;20053;-66
2023/10/12 13:08:37;;;;;;;25.20;13.43;;;;;;;17.25;100.00;101132.38;4703906;28;10001270;-66
2023/10/12 13:11:25;;;;;;;26.05;12.65;;;;;;;17.25;100.00;101149.72;4713873;28;10001443;-65
2023/10/12 13:14:13;;;;;;;24.02;11.88;;;;;;;17.25;100.00;101151.66;5069711;28;20620;-67
2023/10/12 13:17:01;;;;;;;18.13;10.32;;;;;;;17.25;100.00;101157.19;5059565;28;20510;-66
2023/10/12 13:19:50;;;;;;;20.33;9.85;;;;;;;17.23;100.00;101153.91;5055605;28;20045;-65
2023/10/12 13:22:44;;;;;;;20.02;11.82;;;;;;;17.22;100.00;101147.59;5052287;28;20611;-65
2023/10/12 13:25:33;;;;;;;26.02;15.73;;;;;;;17.27;100.00;101157.69;5061318;28;20106;-65
2023/10/12 13:28:21;;;;;;;20.90;12.32;;;;;;;17.27;100.00;101146.69;5069579;28;20527;-65
2023/10/12 13:31:12;;;;;;;22.80;11.35;;;;;;;17.25;100.00;101146.16;5071124;28;20049;-65
2023/10/12 13:34:05;;;;;;;19.42;10.65;;;;;;;17.23;100.00;101145.66;5069917;28;20412;-65
2023/10/12 13:36:55;;;;;;;20.60;9.50;;;;;;;17.20;100.00;101146.25;5066825;28;20523;-65
2023/10/12 13:39:44;;;;;;;21.85;11.23;;;;;;;17.20;100.00;101146.25;5069259;28;20045;-68
2023/10/12 13:42:32;;;;;;;22.55;10.32;;;;;;;17.18;100.00;101154.00;5054549;28;20041;-68
2023/10/12 13:45:21;;;;;;;19.30;10.85;;;;;;;17.18;100.00;101140.25;5051852;28;20492;-68
2023/10/12 13:48:10;;;;;;;20.95;10.50;;;;;;;17.16;100.00;101139.72;5055311;28;20048;-65
2023/10/12 13:51:01;;;;;;;20.33;10.43;;;;;;;17.17;100.00;101130.31;5053754;28;20049;-66
2023/10/12 13:53:50;;;;;;;20.40;10.55;;;;;;;17.15;100.00;101135.31;5032874;28;20048;-66
2023/10/12 13:56:39;;;;;;;18.80;10.35;;;;;;;17.15;100.00;101130.66;5054727;28;20067;-66
2023/10/12 13:59:27;;;;;;;17.63;9.00;;;;;;;17.14;100.00;101131.75;5050108;28;20520;-66
2023/10/12 14:02:15;;;;;;;17.35;9.27;;;;;;;17.15;100.00;101125.16;5035076;28;20102;-68
2023/10/12 14:05:08;;;;;;;16.27;8.30;;;;;;;17.13;100.00;101116.38;5063471;28;20512;-69
2023/10/12 14:08:01;;;;;;;19.48;9.55;;;;;;;17.15;100.00;101119.63;5048123;28;20404;-68
2023/10/12 14:10:51;;;;;;;18.35;11.25;;;;;;;17.19;100.00;101106.06;5033436;28;20049;-68
2023/10/12 14:13:39;;;;;;;18.17;10.88;;;;;;;17.20;100.00;101118.72;5034646;28;20138;-69
2023/10/12 14:16:27;;;;;;;18.70;10.25;;;;;;;17.18;100.00;101119.03;5068041;28;20044;-67
2023/10/12 14:19:16;;;;;;;20.00;10.90;;;;;;;17.19;100.00;101120.63;5055231;28;20049;-70